Terminal Aerodrome Forecast
Issued by NWS

Home | Current Version | Previous Version | Text Only | Print | Product List | Glossary On
Versions: 1 2 3 4 5 6 7 8 9 10 11 12 13 14 15 16
240
FTUS45 KRIW 251128
TAFCPR
TAF
KCPR 251128Z 2512/2612 VRB05KT P6SM -RASN OVC008
     FM251600 VRB05KT P6SM VCSH SCT008 OVC015
     FM252000 26007KT P6SM VCSH SCT015 BKN035
     FM260100 29005KT P6SM SCT035 BKN060
     FM261000 26005KT P6SM VCFG SCT060 SCT090=

USA.gov is the U.S. government's official web portal to all federal, state and local government web resources and services.